Time;durP1;ratioP1;P1;durP2;ratioP2;P2;SDS_P1;SDS_P2;PMS_P1;PMS_P2;Temp;Humidity;BMP_temperature;BMP_pressure;BME280_temperature;BME280_humidity;BME280_pressure;Samples;Min_cycle;Max_cycle;Signal;HPM_P1;HPM_P2
2022/12/30 00:00:28;;;;;;;27.13;3.92;;;;;;;8.65;98.37;99222.53;5118399;28;20036;-66
2022/12/30 00:02:54;;;;;;;21.48;3.70;;;;;;;8.81;98.37;99267.50;5105052;28;20406;-66
2022/12/30 00:05:19;;;;;;;32.13;3.38;;;;;;;8.83;98.38;99259.22;5114610;28;20056;-67
2022/12/30 00:07:45;;;;;;;26.45;4.32;;;;;;;8.88;97.95;99259.38;5110515;28;20039;-68
2022/12/30 00:10:10;;;;;;;36.67;4.50;;;;;;;8.98;97.66;99258.84;5090939;28;20032;-67
2022/12/30 00:35:08;;;;;;;34.10;4.05;;;;;;;8.73;98.42;99245.53;5065149;28;19999;-66
2022/12/30 00:37:33;;;;;;;24.08;3.63;;;;;;;8.68;99.05;99251.56;5070932;28;20059;-67
2022/12/30 00:39:59;;;;;;;28.05;3.92;;;;;;;8.68;98.26;99238.19;5087981;28;20040;-67
2022/12/30 00:45:08;;;;;;;31.70;3.85;;;;;;;8.57;99.22;99244.28;5050878;28;20115;-67
2022/12/30 00:47:34;;;;;;;23.50;3.38;;;;;;;8.63;98.54;99240.69;5087989;28;20086;-66
2022/12/30 00:58:13;;;;;;;36.40;4.65;;;;;;;8.47;98.26;99234.88;5089270;28;20051;-66
2022/12/30 01:00:38;;;;;;;43.92;5.10;;;;;;;8.63;97.72;99262.97;5045224;28;20060;-68
2022/12/30 01:03:04;;;;;;;30.00;4.22;;;;;;;8.66;98.31;99262.50;5103763;28;20036;-68
2022/12/30 01:05:30;;;;;;;26.70;3.97;;;;;;;8.63;97.98;99265.63;5105556;28;20046;-67
2022/12/30 01:07:55;;;;;;;36.88;4.70;;;;;;;8.65;98.78;99266.25;5105342;28;20410;-67
2022/12/30 01:10:21;;;;;;;33.75;4.25;;;;;;;8.55;98.65;99254.41;5111142;28;20119;-66
2022/12/30 01:12:46;;;;;;;32.10;3.90;;;;;;;8.62;99.02;99265.88;5098515;28;20028;-68
2022/12/30 01:15:12;;;;;;;29.67;4.20;;;;;;;8.50;98.42;99248.91;5111662;28;20406;-69
2022/12/30 01:17:37;;;;;;;27.20;3.50;;;;;;;8.50;100.00;99273.84;5086886;28;20038;-68
2022/12/30 01:20:05;;;;;;;27.80;4.10;;;;;;;8.51;99.31;99280.84;5102857;28;20408;-71
2022/12/30 01:22:30;;;;;;;26.52;3.78;;;;;;;8.35;99.36;99250.06;5109440;28;20023;-70
2022/12/30 01:24:56;;;;;;;24.13;4.00;;;;;;;8.66;99.23;99267.06;5096092;28;20032;-68
2022/12/30 01:27:21;;;;;;;31.08;3.88;;;;;;;8.72;99.16;99274.22;5108897;28;20097;-67
2022/12/30 01:29:47;;;;;;;26.77;3.65;;;;;;;8.75;98.32;99275.63;5106013;28;20661;-67
2022/12/30 01:32:16;;;;;;;25.80;3.72;;;;;;;8.75;99.09;99276.44;5109098;28;20401;-68
2022/12/30 01:34:42;;;;;;;28.70;4.00;;;;;;;8.72;98.40;99282.25;5108329;28;20035;-67
2022/12/30 01:37:08;;;;;;;29.10;4.00;;;;;;;8.68;98.60;99256.94;5111425;28;20088;-67
2022/12/30 01:39:34;;;;;;;21.73;3.38;;;;;;;8.74;98.31;99277.50;5111277;28;20401;-68
2022/12/30 01:42:00;;;;;;;27.75;3.70;;;;;;;8.71;98.78;99275.28;5105109;28;20046;-68
2022/12/30 01:44:52;;;;;;;25.63;3.78;;;;;;;8.73;98.23;99266.97;5112052;28;20126;-68
2022/12/30 01:47:45;;;;;;;24.17;4.10;;;;;;;8.74;98.47;99266.78;5087708;28;20023;-68
2022/12/30 01:50:11;;;;;;;26.05;3.60;;;;;;;8.78;97.75;99259.09;5102693;28;20387;-68
2022/12/30 01:52:42;;;;;;;22.85;3.65;;;;;;;8.72;98.21;99263.50;5112167;28;20039;-67
2022/12/30 01:55:13;;;;;;;23.70;3.15;;;;;;;8.77;98.46;99268.16;5084941;28;20024;-67
2022/12/30 01:57:43;;;;;;;25.75;3.50;;;;;;;8.49;98.42;99234.69;5107688;28;20091;-68
2022/12/30 02:00:10;;;;;;;28.40;3.78;;;;;;;8.70;98.39;99268.25;5107949;28;20035;-67
2022/12/30 02:02:35;;;;;;;25.25;4.10;;;;;;;8.75;98.15;99265.72;5099267;28;20024;-67
2022/12/30 02:05:03;;;;;;;31.52;4.32;;;;;;;8.71;98.67;99267.22;5111908;28;20028;-67
2022/12/30 02:07:47;;;;;;;21.85;3.55;;;;;;;8.59;98.18;99250.25;5102440;28;21132;-67
2022/12/30 02:10:13;;;;;;;27.33;3.92;;;;;;;8.62;98.30;99244.44;5103867;28;20088;-68
2022/12/30 02:12:38;;;;;;;25.63;3.63;;;;;;;8.74;98.58;99264.09;5095302;28;20111;-68
2022/12/30 02:15:05;;;;;;;33.22;3.70;;;;;;;8.75;98.38;99268.41;5082064;28;20545;-68
2022/12/30 02:17:30;;;;;;;27.30;3.42;;;;;;;8.68;98.46;99259.63;5109233;28;20027;-68
2022/12/30 02:20:17;;;;;;;35.50;4.22;;;;;;;8.72;98.16;99257.31;5105632;28;20521;-68
2022/12/30 02:22:57;;;;;;;27.17;3.60;;;;;;;8.75;98.84;99260.34;5098364;28;20494;-67
2022/12/30 02:25:28;;;;;;;26.83;3.55;;;;;;;8.74;98.73;99263.25;5110634;28;20032;-68
2022/12/30 02:28:19;;;;;;;24.00;3.67;;;;;;;8.79;98.22;99266.09;5106794;28;20038;-68
2022/12/30 02:31:14;;;;;;;29.98;3.47;;;;;;;8.72;99.24;99263.50;5097288;28;20412;-68
2022/12/30 02:34:10;;;;;;;25.35;4.00;;;;;;;8.74;99.11;99256.06;5106048;28;20028;-68
2022/12/30 02:36:55;;;;;;;25.90;4.13;;;;;;;8.64;99.79;99261.94;5111319;28;20024;-68
2022/12/30 02:39:47;;;;;;;28.42;3.88;;;;;;;8.63;99.85;99256.78;5100355;28;20028;-67
2022/12/30 02:45:18;;;;;;;40.05;4.75;;;;;;;8.69;99.12;99262.06;5090562;28;20090;-68
2022/12/30 02:48:09;;;;;;;29.65;4.03;;;;;;;8.71;99.75;99259.19;5082819;28;20032;-68
2022/12/30 02:53:28;;;;;;;32.85;4.03;;;;;;;8.60;99.72;99243.81;5065450;28;20681;-68
2022/12/30 02:55:55;;;;;;;35.05;4.10;;;;;;;8.71;99.64;99256.50;5083248;28;20052;-68
2022/12/30 02:58:23;;;;;;;31.48;4.50;;;;;;;8.72;99.69;99249.25;5087751;28;20062;-68
2022/12/30 03:04:20;;;;;;;31.80;4.38;;;;;;;8.86;99.09;99254.22;5084897;28;20411;-68
2022/12/30 03:06:57;;;;;;;32.42;4.35;;;;;;;8.80;100.00;99247.06;5072885;28;20062;-68
2022/12/30 03:13:00;;;;;;;29.05;4.20;;;;;;;8.50;100.00;99232.81;5083409;28;20085;-68
2022/12/30 03:15:40;;;;;;;24.65;3.05;;;;;;;8.45;100.00;99222.78;5089012;28;20059;-68
2022/12/30 03:18:07;;;;;;;22.50;3.05;;;;;;;8.58;100.00;99254.78;5105235;28;20097;-68
2022/12/30 03:20:33;;;;;;;29.55;3.03;;;;;;;8.65;100.00;99266.25;5112714;28;20425;-68
2022/12/30 03:28:34;;;;;;;18.15;2.35;;;;;;;8.55;100.00;99257.09;5113405;28;20108;-68
2022/12/30 03:31:03;;;;;;;16.63;2.53;;;;;;;8.52;100.00;99244.13;5101818;28;20486;-68
2022/12/30 03:33:31;;;;;;;15.82;2.35;;;;;;;8.63;100.00;99270.19;5116015;28;20020;-69
2022/12/30 03:36:23;;;;;;;14.13;1.88;;;;;;;8.67;100.00;99266.00;5112707;28;20031;-69
2022/12/30 03:38:56;;;;;;;21.33;2.40;;;;;;;8.53;100.00;99248.44;5081998;28;20490;-68
2022/12/30 03:41:24;;;;;;;22.50;2.90;;;;;;;8.63;100.00;99259.47;5093614;28;20452;-72
2022/12/30 03:43:50;;;;;;;19.58;3.33;;;;;;;8.64;100.00;99269.13;5088560;28;20048;-68
2022/12/30 03:46:18;;;;;;;22.13;3.03;;;;;;;8.64;100.00;99259.25;5069036;28;20478;-69
2022/12/30 03:48:44;;;;;;;23.75;3.40;;;;;;;8.53;100.00;99259.97;5079545;28;20032;-69
2022/12/30 03:51:09;;;;;;;19.05;2.40;;;;;;;8.60;100.00;99251.88;5083235;28;20055;-69
2022/12/30 03:53:35;;;;;;;24.45;3.03;;;;;;;8.70;100.00;99266.38;5075382;28;20055;-68
2022/12/30 03:56:00;;;;;;;22.83;2.90;;;;;;;8.72;100.00;99268.03;5071736;28;20526;-69
2022/12/30 03:58:25;;;;;;;26.77;2.58;;;;;;;8.65;100.00;99281.53;5083922;28;20074;-69
2022/12/30 04:00:51;;;;;;;27.33;3.60;;;;;;;8.39;100.00;99221.78;5077581;28;20046;-69
2022/12/30 04:03:16;;;;;;;20.38;2.80;;;;;;;8.71;100.00;99286.00;5082545;28;20032;-69
2022/12/30 04:05:42;;;;;;;16.92;2.70;;;;;;;8.68;100.00;99273.84;5073720;28;20048;-68
2022/12/30 04:08:08;;;;;;;20.35;2.55;;;;;;;8.69;100.00;99285.38;5073359;28;20044;-69
2022/12/30 04:10:34;;;;;;;28.85;3.70;;;;;;;8.79;100.00;99292.91;5101568;28;20044;-68
2022/12/30 04:12:59;;;;;;;22.60;2.90;;;;;;;8.77;100.00;99290.44;5099142;28;20039;-68
2022/12/30 04:15:24;;;;;;;21.58;2.50;;;;;;;8.78;100.00;99294.78;5106336;28;20058;-69
2022/12/30 04:17:50;;;;;;;27.35;2.75;;;;;;;8.81;100.00;99299.69;5109647;28;20043;-69
2022/12/30 04:20:16;;;;;;;26.25;3.30;;;;;;;8.78;100.00;99294.78;5117754;28;20080;-76
2022/12/30 04:22:41;;;;;;;25.70;3.17;;;;;;;8.75;100.00;99289.84;5108223;28;20032;-69
2022/12/30 04:25:10;;;;;;;18.45;2.40;;;;;;;8.76;100.00;99299.53;5116844;28;20059;-68
2022/12/30 04:27:35;;;;;;;24.45;3.40;;;;;;;8.77;100.00;99305.72;5105134;28;20020;-69
2022/12/30 04:30:02;;;;;;;24.83;3.10;;;;;;;8.76;100.00;99309.44;5108645;28;20062;-68
2022/12/30 04:32:28;;;;;;;25.80;2.65;;;;;;;8.73;100.00;99315.25;5113723;28;20514;-68
2022/12/30 04:34:54;;;;;;;18.80;3.05;;;;;;;8.74;100.00;99319.56;5084970;28;20024;-68
2022/12/30 04:37:22;;;;;;;19.75;2.50;;;;;;;8.75;100.00;99330.09;5115472;28;20173;-69
2022/12/30 04:39:47;;;;;;;14.55;2.20;;;;;;;8.77;100.00;99336.03;5090598;28;20099;-68
2022/12/30 04:42:12;;;;;;;14.77;2.50;;;;;;;8.74;100.00;99335.66;5107475;28;20063;-68
2022/12/30 04:44:38;;;;;;;15.55;2.00;;;;;;;8.79;100.00;99351.91;5113700;28;20046;-68
2022/12/30 04:47:03;;;;;;;19.23;2.22;;;;;;;8.70;100.00;99351.38;5102278;28;20035;-69
2022/12/30 04:49:29;;;;;;;17.13;2.33;;;;;;;8.50;100.00;99315.91;5113596;28;20039;-68
2022/12/30 04:51:55;;;;;;;16.92;2.15;;;;;;;8.80;100.00;99365.09;5108567;28;20032;-68
2022/12/30 04:54:20;;;;;;;11.85;1.65;;;;;;;8.72;100.00;99353.84;5106153;28;20036;-69
2022/12/30 04:56:46;;;;;;;18.50;2.20;;;;;;;8.69;100.00;99347.06;5116313;28;20031;-68
2022/12/30 04:59:11;;;;;;;20.15;2.25;;;;;;;8.74;100.00;99360.63;5101545;28;20043;-68
2022/12/30 05:01:36;;;;;;;20.33;1.92;;;;;;;8.62;100.00;99352.50;5111132;28;20115;-68
2022/12/30 05:04:02;;;;;;;11.18;1.75;;;;;;;8.67;100.00;99362.53;5091749;28;20122;-68
2022/12/30 05:06:27;;;;;;;20.85;2.90;;;;;;;8.66;100.00;99350.19;5103734;28;20032;-69
2022/12/30 05:08:53;;;;;;;15.75;2.10;;;;;;;8.64;100.00;99357.63;5097724;28;20478;-68
2022/12/30 05:11:18;;;;;;;16.38;2.63;;;;;;;8.66;100.00;99364.41;5103361;28;20092;-68
2022/12/30 05:13:43;;;;;;;19.55;2.10;;;;;;;8.74;100.00;99397.34;5092637;28;20040;-69
2022/12/30 05:16:09;;;;;;;19.70;2.25;;;;;;;8.19;100.00;99306.91;5108561;28;20043;-68
2022/12/30 05:18:34;;;;;;;14.02;2.15;;;;;;;8.71;100.00;99393.25;5085191;28;20036;-68
2022/12/30 05:21:00;;;;;;;16.63;2.40;;;;;;;8.54;100.00;99366.16;5097558;28;20039;-69
2022/12/30 05:26:15;;;;;;;14.85;2.00;;;;;;;8.69;100.00;99406.06;5107229;28;20035;-68
2022/12/30 05:28:44;;;;;;;13.27;1.63;;;;;;;8.71;100.00;99414.72;5113420;28;20092;-68
2022/12/30 05:31:10;;;;;;;13.45;1.63;;;;;;;8.63;100.00;99418.47;5101015;28;20080;-68
2022/12/30 05:33:35;;;;;;;8.90;1.15;;;;;;;8.51;100.00;99414.91;5111455;28;20483;-68
2022/12/30 05:36:01;;;;;;;7.80;1.23;;;;;;;8.56;100.00;99431.13;5108721;28;20032;-70
2022/12/30 05:38:27;;;;;;;9.75;1.52;;;;;;;8.67;100.00;99425.03;5103318;28;20032;-68
2022/12/30 05:40:53;;;;;;;9.90;1.73;;;;;;;8.72;100.00;99423.56;5115036;27;20038;-68
2022/12/30 05:43:18;;;;;;;17.27;2.10;;;;;;;8.67;100.00;99435.75;5102890;28;20035;-68
2022/12/30 05:45:44;;;;;;;15.63;2.38;;;;;;;8.52;100.00;99424.56;5109677;28;20036;-68
2022/12/30 05:48:09;;;;;;;17.88;2.20;;;;;;;8.63;100.00;99439.13;5111147;28;20039;-68
2022/12/30 05:50:35;;;;;;;15.02;1.80;;;;;;;8.63;100.00;99444.47;5103001;28;20040;-68
2022/12/30 05:53:00;;;;;;;15.50;2.03;;;;;;;8.73;100.00;99455.53;5114811;28;20035;-68
2022/12/30 05:55:26;;;;;;;17.77;2.00;;;;;;;8.71;100.00;99457.63;5096976;28;20115;-68
2022/12/30 05:57:51;;;;;;;19.02;2.97;;;;;;;8.63;100.00;99473.97;5089396;28;20046;-69
2022/12/30 06:00:16;;;;;;;17.23;2.50;;;;;;;8.67;100.00;99464.44;5105540;28;20066;-68
2022/12/30 06:02:42;;;;;;;15.35;1.73;;;;;;;8.75;100.00;99474.91;5115073;28;20036;-68
2022/12/30 06:05:08;;;;;;;15.88;2.17;;;;;;;8.65;100.00;99470.03;5068013;28;20035;-71
2022/12/30 06:07:33;;;;;;;16.75;2.17;;;;;;;8.74;100.00;99499.25;5115983;28;20036;-73
2022/12/30 06:09:59;;;;;;;17.48;2.60;;;;;;;8.79;100.00;99497.56;5110481;28;20413;-69
2022/12/30 06:12:24;;;;;;;22.45;2.53;;;;;;;8.77;100.00;99502.31;5087369;28;20036;-68
2022/12/30 06:14:49;;;;;;;19.45;2.60;;;;;;;8.82;100.00;99505.16;5114165;28;20038;-68
2022/12/30 06:17:15;;;;;;;12.43;2.22;;;;;;;8.89;100.00;99508.63;5101882;28;20047;-68
2022/12/30 06:19:40;;;;;;;16.02;2.60;;;;;;;8.81;100.00;99516.13;5110827;28;20032;-68
2022/12/30 06:22:06;;;;;;;20.42;2.20;;;;;;;8.83;100.00;99514.03;5107798;28;20104;-68
2022/12/30 06:24:32;;;;;;;19.63;2.42;;;;;;;8.81;100.00;99516.94;5102796;28;20441;-69
2022/12/30 06:26:57;;;;;;;14.25;1.58;;;;;;;8.67;100.00;99504.66;5114181;28;20028;-68
2022/12/30 06:29:23;;;;;;;18.80;1.77;;;;;;;8.77;100.00;99531.00;5103255;28;20046;-69
2022/12/30 06:31:48;;;;;;;16.13;1.73;;;;;;;8.78;100.00;99530.78;5108548;28;20032;-68
2022/12/30 06:34:13;;;;;;;11.10;1.60;;;;;;;8.49;100.00;99494.72;5109538;28;20032;-71
2022/12/30 06:36:39;;;;;;;15.18;1.25;;;;;;;8.60;100.00;99542.25;5101017;28;20108;-69
2022/12/30 06:39:04;;;;;;;13.98;1.98;;;;;;;8.65;100.00;99537.06;5114215;28;20107;-68
2022/12/30 06:41:29;;;;;;;16.75;1.42;;;;;;;8.61;100.00;99535.03;5085058;28;20497;-69
2022/12/30 06:43:55;;;;;;;16.08;1.35;;;;;;;8.54;100.00;99553.03;5090049;28;20513;-69
2022/12/30 06:46:20;;;;;;;19.63;2.38;;;;;;;8.32;100.00;99539.13;5109276;28;20126;-68
2022/12/30 06:48:46;;;;;;;20.52;2.40;;;;;;;8.43;100.00;99560.72;5101434;28;20028;-68
2022/12/30 06:51:11;;;;;;;15.82;1.60;;;;;;;8.43;100.00;99560.72;5099223;28;20032;-68
2022/12/30 06:53:36;;;;;;;14.77;1.80;;;;;;;8.37;100.00;99556.19;5080671;28;20078;-68
2022/12/30 06:56:02;;;;;;;13.18;1.83;;;;;;;8.40;100.00;99571.88;5100402;28;20043;-68
2022/12/30 06:58:28;;;;;;;17.70;2.33;;;;;;;8.43;100.00;99579.50;5099129;28;20036;-68
2022/12/30 07:00:54;;;;;;;17.35;2.00;;;;;;;8.45;100.00;99582.78;5082072;28;20057;-68
2022/12/30 07:03:19;;;;;;;21.27;1.92;;;;;;;8.43;100.00;99589.41;5098067;28;20123;-68
2022/12/30 07:05:45;;;;;;;15.88;2.17;;;;;;;8.35;100.00;99577.03;5082635;28;20543;-68
2022/12/30 07:08:10;;;;;;;15.30;1.85;;;;;;;8.38;100.00;99582.00;5104623;28;20027;-69
2022/12/30 07:10:36;;;;;;;20.80;1.92;;;;;;;8.57;100.00;99616.94;5106124;28;20028;-68
2022/12/30 07:13:01;;;;;;;11.52;1.48;;;;;;;8.61;100.00;99618.16;5100773;28;20398;-69
2022/12/30 07:15:27;;;;;;;13.38;1.88;;;;;;;8.69;100.00;99615.22;5099438;28;20511;-68
2022/12/30 07:17:52;;;;;;;19.20;3.00;;;;;;;8.58;100.00;99616.75;5100415;28;20031;-68
2022/12/30 07:20:17;;;;;;;17.13;2.08;;;;;;;8.55;100.00;99619.84;5100249;28;20036;-68
2022/12/30 07:22:43;;;;;;;11.50;1.80;;;;;;;8.39;100.00;99588.19;5101020;28;20036;-68
2022/12/30 07:25:09;;;;;;;16.75;2.70;;;;;;;8.59;100.00;99622.94;5102438;28;20093;-68
2022/12/30 07:27:34;;;;;;;14.88;2.08;;;;;;;8.45;100.00;99608.78;5100955;28;20024;-68
2022/12/30 07:29:59;;;;;;;18.02;1.75;;;;;;;8.52;100.00;99614.91;5082257;28;20088;-68
2022/12/30 07:32:25;;;;;;;15.82;2.47;;;;;;;8.67;100.00;99633.38;5112213;28;20035;-68
2022/12/30 07:34:50;;;;;;;13.48;1.83;;;;;;;8.66;100.00;99642.47;5103291;28;20350;-69
2022/12/30 07:37:16;;;;;;;19.40;1.55;;;;;;;8.74;100.00;99661.00;5114708;28;20071;-67
2022/12/30 07:39:41;;;;;;;19.27;2.40;;;;;;;8.60;100.00;99654.88;5104072;28;20028;-69
2022/12/30 07:42:07;;;;;;;14.63;1.70;;;;;;;8.62;100.00;99646.63;5112159;28;20031;-69
2022/12/30 07:44:32;;;;;;;17.48;2.10;;;;;;;8.78;100.00;99681.00;5104181;28;20100;-68
2022/12/30 07:46:57;;;;;;;16.63;2.13;;;;;;;8.69;100.00;99687.63;5115392;28;20081;-68
2022/12/30 07:49:23;;;;;;;17.67;2.08;;;;;;;8.76;100.00;99690.28;5103071;28;20067;-68
2022/12/30 07:51:48;;;;;;;18.98;2.22;;;;;;;8.80;100.00;99688.81;5111981;28;20036;-68
2022/12/30 07:54:14;;;;;;;17.70;2.08;;;;;;;8.96;100.00;99699.03;5099935;28;20482;-68
2022/12/30 07:56:39;;;;;;;12.38;2.33;;;;;;;8.85;100.00;99705.91;5100847;28;20043;-69
2022/12/30 07:59:04;;;;;;;17.52;1.83;;;;;;;8.90;100.00;99700.72;5101463;28;20034;-67
2022/12/30 08:01:30;;;;;;;16.20;1.73;;;;;;;8.98;100.00;99721.13;5100121;28;20486;-68
2022/12/30 08:03:56;;;;;;;16.08;2.28;;;;;;;8.99;100.00;99716.56;5099887;28;20047;-68
2022/12/30 08:06:21;;;;;;;18.00;3.00;;;;;;;8.96;100.00;99706.28;5100513;28;20148;-68
2022/12/30 08:08:47;;;;;;;12.63;1.80;;;;;;;9.03;99.77;99733.88;5079563;28;20494;-69
2022/12/30 08:11:14;;;;;;;13.82;1.58;;;;;;;8.97;100.00;99732.06;5114480;28;20056;-68
2022/12/30 08:13:41;;;;;;;16.70;1.95;;;;;;;8.98;100.00;99733.72;5106545;28;20046;-68
2022/12/30 08:16:09;;;;;;;20.70;2.38;;;;;;;9.10;99.56;99735.47;5108623;28;20068;-66
2022/12/30 08:18:35;;;;;;;13.73;1.88;;;;;;;9.13;99.74;99737.72;5113661;28;20035;-66
2022/12/30 08:21:04;;;;;;;18.80;2.53;;;;;;;9.01;98.90;99722.56;5103374;28;20056;-66
2022/12/30 08:23:32;;;;;;;21.20;2.10;;;;;;;9.16;99.55;99757.97;5115371;28;20048;-67
2022/12/30 08:26:06;;;;;;;22.92;3.00;;;;;;;9.02;98.64;99748.34;5108148;28;20037;-67
2022/12/30 08:28:32;;;;;;;18.00;2.10;;;;;;;9.06;99.49;99773.69;5106958;28;20028;-68
2022/12/30 08:30:57;;;;;;;24.20;2.67;;;;;;;8.94;99.47;99749.44;5108707;28;20053;-67
2022/12/30 08:33:22;;;;;;;11.77;1.70;;;;;;;9.03;99.17;99780.31;5104624;28;20035;-67
2022/12/30 08:35:48;;;;;;;25.75;3.50;;;;;;;9.06;99.41;99784.44;5112776;28;20028;-67
2022/12/30 08:38:13;;;;;;;27.38;2.85;;;;;;;9.06;98.97;99779.06;5100419;28;20026;-67
2022/12/30 08:40:38;;;;;;;22.90;3.05;;;;;;;9.02;98.51;99791.28;5082590;28;20153;-66
2022/12/30 08:43:04;;;;;;;15.73;2.45;;;;;;;9.08;98.38;99799.28;5099652;28;20051;-68
2022/12/30 08:45:29;;;;;;;22.88;3.55;;;;;;;9.18;96.92;99796.97;5101546;28;20039;-66
2022/12/30 08:47:55;;;;;;;26.08;3.92;;;;;;;9.17;97.49;99810.59;5093690;28;20043;-68
2022/12/30 08:50:21;;;;;;;21.52;3.70;;;;;;;9.28;96.72;99823.34;5095716;28;20038;-67
2022/12/30 08:52:46;;;;;;;31.40;3.70;;;;;;;9.32;97.09;99829.09;5084353;28;20031;-67
2022/12/30 08:55:12;;;;;;;25.35;3.38;;;;;;;9.22;96.52;99834.94;5082093;28;20394;-67
2022/12/30 08:57:38;;;;;;;24.00;3.30;;;;;;;9.17;97.42;99837.44;5105416;28;20098;-67
2022/12/30 09:00:04;;;;;;;25.67;4.05;;;;;;;9.26;96.89;99835.34;5108834;28;20046;-67
2022/12/30 09:02:32;;;;;;;27.92;3.85;;;;;;;9.36;96.37;99841.88;5098778;28;20032;-66
2022/12/30 09:04:57;;;;;;;18.52;3.30;;;;;;;9.10;96.66;99842.00;5099675;28;20413;-66
2022/12/30 09:07:23;;;;;;;25.60;3.38;;;;;;;9.17;97.55;99859.75;5098179;28;20032;-67
2022/12/30 09:09:48;;;;;;;18.98;2.53;;;;;;;9.21;96.71;99856.63;5106262;28;20060;-67
2022/12/30 09:12:13;;;;;;;25.27;3.25;;;;;;;9.10;96.23;99864.28;5104892;28;20248;-68
2022/12/30 09:14:39;;;;;;;25.75;3.13;;;;;;;9.14;94.97;99854.00;5097020;28;20028;-68
2022/12/30 09:17:05;;;;;;;24.00;3.28;;;;;;;9.08;94.47;99836.03;5081020;28;20048;-68
2022/12/30 09:19:31;;;;;;;20.70;3.10;;;;;;;9.12;94.30;99866.78;5111313;28;20112;-68
2022/12/30 09:21:56;;;;;;;27.92;3.50;;;;;;;8.97;93.53;99848.25;5104054;28;20047;-67
2022/12/30 09:24:21;;;;;;;25.60;4.03;;;;;;;9.15;93.35;99882.47;5085816;28;20065;-67
2022/12/30 09:26:47;;;;;;;22.30;2.92;;;;;;;9.09;92.59;99867.19;5112214;28;20058;-68
2022/12/30 09:29:15;;;;;;;21.45;3.55;;;;;;;9.09;92.06;99884.13;5100433;28;20492;-66
2022/12/30 09:31:40;;;;;;;23.08;2.92;;;;;;;8.83;91.67;99858.19;5110436;28;20028;-68
2022/12/30 09:34:06;;;;;;;24.17;3.60;;;;;;;9.06;90.85;99873.81;5105100;28;20039;-68
2022/12/30 09:36:31;;;;;;;30.13;3.75;;;;;;;9.03;90.92;99887.66;5101086;28;20040;-67
2022/12/30 09:38:56;;;;;;;21.02;2.88;;;;;;;9.00;90.47;99898.81;5108660;28;20024;-68
2022/12/30 09:44:56;;;;;;;30.17;3.90;;;;;;;9.12;88.44;99909.72;5107741;28;20504;-69
2022/12/30 09:47:29;;;;;;;23.02;3.47;;;;;;;8.99;88.05;99918.63;5080215;28;20102;-67
2022/12/30 09:50:23;;;;;;;26.35;4.07;;;;;;;9.09;87.80;99927.06;5113989;28;20094;-68
2022/12/30 09:53:12;;;;;;;25.20;3.75;;;;;;;8.99;87.77;99937.41;5107292;28;20042;-68
2022/12/30 09:55:48;;;;;;;29.20;4.22;;;;;;;8.97;87.60;99942.16;5087317;28;20030;-68
2022/12/30 09:58:23;;;;;;;23.98;3.65;;;;;;;9.07;86.87;99944.41;5094737;28;20030;-70
2022/12/30 10:00:51;;;;;;;24.45;3.50;;;;;;;8.96;87.22;99931.66;5096454;28;20026;-69
2022/12/30 10:03:20;;;;;;;25.50;3.78;;;;;;;9.21;87.46;99966.69;5097588;28;20134;-68
2022/12/30 10:06:11;;;;;;;29.30;4.57;;;;;;;9.15;87.04;99973.72;5098440;28;20089;-68
2022/12/30 10:09:00;;;;;;;29.33;4.50;;;;;;;9.15;87.41;99968.34;5094236;28;20038;-68
2022/12/30 10:11:47;;;;;;;24.50;3.80;;;;;;;9.18;87.67;99973.28;5097933;28;20031;-68
2022/12/30 10:14:40;;;;;;;26.00;4.50;;;;;;;9.12;87.96;99984.88;5104971;28;20020;-67
2022/12/30 10:17:14;;;;;;;31.40;3.88;;;;;;;9.23;88.42;99992.25;5111922;28;20410;-68
2022/12/30 10:20:24;;;;;;;32.60;4.90;;;;;;;9.23;87.42;99989.59;5101593;28;20050;-69
2022/12/30 10:23:05;;;;;;;26.10;4.28;;;;;;;9.37;87.59;100004.66;5095608;28;20444;-69
2022/12/30 10:26:04;;;;;;;30.48;4.68;;;;;;;9.38;87.99;100002.78;5086266;28;20027;-69
2022/12/30 10:28:40;;;;;;;29.77;4.28;;;;;;;9.41;88.42;100011.22;5109685;28;20439;-69
2022/12/30 10:31:14;;;;;;;32.25;4.07;;;;;;;9.23;88.95;100012.91;5100322;28;20035;-69
2022/12/30 10:33:40;;;;;;;27.52;3.67;;;;;;;9.23;89.34;100005.69;5111144;28;20024;-69
2022/12/30 10:36:16;;;;;;;25.02;4.18;;;;;;;9.32;89.32;100006.31;5098507;28;20360;-69
2022/12/30 10:38:42;;;;;;;30.25;4.90;;;;;;;9.33;89.02;100003.38;5123673;28;20461;-68
2022/12/30 10:41:29;;;;;;;33.10;4.60;;;;;;;9.34;88.52;100010.44;5112115;28;20027;-69
2022/12/30 10:44:04;;;;;;;34.92;4.15;;;;;;;9.30;89.10;100000.31;5107183;28;20532;-69
2022/12/30 10:46:52;;;;;;;28.90;4.65;;;;;;;9.05;89.33;99984.06;5109457;28;20044;-69
2022/12/30 10:49:35;;;;;;;31.95;3.33;;;;;;;9.18;89.63;100018.94;5097514;28;20031;-68
2022/12/30 10:52:01;;;;;;;30.08;3.45;;;;;;;9.19;89.13;100009.84;5105684;28;20028;-68
2022/12/30 10:54:27;;;;;;;26.67;4.18;;;;;;;9.16;89.01;100029.84;5107322;28;20379;-68
2022/12/30 10:56:52;;;;;;;28.92;4.13;;;;;;;9.20;88.45;100027.56;5097194;28;20032;-67
2022/12/30 10:59:22;;;;;;;33.90;4.13;;;;;;;9.24;88.76;100036.88;5108583;28;20034;-68
2022/12/30 11:01:51;;;;;;;32.92;4.75;;;;;;;9.03;89.19;100024.50;5099198;28;20026;-68
2022/12/30 11:04:43;;;;;;;27.63;3.97;;;;;;;8.81;89.07;99988.22;5100870;28;20036;-68
2022/12/30 11:07:12;;;;;;;31.98;4.53;;;;;;;9.17;89.16;100054.84;5087170;28;20043;-68
2022/12/30 11:09:38;;;;;;;27.02;4.25;;;;;;;9.14;89.21;100058.78;5098221;28;20041;-68
2022/12/30 11:15:07;;;;;;;35.90;4.07;;;;;;;9.16;89.61;100063.94;5111696;28;20565;-70
2022/12/30 11:17:44;;;;;;;32.35;4.25;;;;;;;9.13;88.96;100046.38;5100857;28;20027;-70
2022/12/30 11:20:13;;;;;;;27.92;4.05;;;;;;;9.18;89.98;100064.56;5119071;28;20046;-69
2022/12/30 11:22:50;;;;;;;23.45;3.70;;;;;;;9.22;89.72;100054.22;5108467;28;20392;-68
2022/12/30 11:25:25;;;;;;;23.38;4.70;;;;;;;9.16;89.79;100061.25;5097832;28;20394;-68
2022/12/30 11:28:11;;;;;;;32.00;4.00;;;;;;;9.17;89.75;100057.53;5108767;28;20028;-70
2022/12/30 11:30:52;;;;;;;30.65;3.47;;;;;;;9.20;89.12;100067.84;5108227;28;20028;-68
2022/12/30 11:33:23;;;;;;;23.00;3.38;;;;;;;9.16;89.75;100063.94;5098755;28;20031;-68
2022/12/30 11:35:49;;;;;;;31.83;4.70;;;;;;;9.17;89.66;100061.06;5107880;28;20026;-68
2022/12/30 11:38:36;;;;;;;28.08;4.82;;;;;;;9.17;89.53;100057.53;5104577;28;20448;-68
2022/12/30 11:41:16;;;;;;;23.90;4.40;;;;;;;9.17;89.92;100061.06;5098029;28;20035;-67
2022/12/30 11:43:58;;;;;;;36.40;4.80;;;;;;;9.08;90.60;100054.25;5108274;28;20078;-67
2022/12/30 11:46:30;;;;;;;34.60;3.72;;;;;;;9.12;89.65;100047.41;5106431;28;20383;-67
2022/12/30 11:49:34;;;;;;;30.02;4.10;;;;;;;9.11;90.03;100055.69;5096417;28;20110;-65
2022/12/30 11:52:08;;;;;;;24.48;3.90;;;;;;;9.12;90.05;100054.66;5092072;28;20274;-66
2022/12/30 11:54:47;;;;;;;25.30;3.70;;;;;;;9.12;90.37;100044.75;5104123;28;20032;-66
2022/12/30 11:57:19;;;;;;;31.83;4.25;;;;;;;9.21;90.44;100048.03;5115803;28;20454;-66
2022/12/30 11:59:49;;;;;;;31.13;4.38;;;;;;;9.24;89.79;100055.69;5104922;28;20037;-66
2022/12/30 12:02:30;;;;;;;29.85;4.47;;;;;;;9.24;89.79;100055.69;5108489;27;20442;-66
2022/12/30 12:04:55;;;;;;;35.63;5.00;;;;;;;9.22;90.06;100040.81;5112715;28;20032;-66
2022/12/30 12:07:24;;;;;;;27.65;4.30;;;;;;;9.33;89.46;100049.03;5100476;28;20158;-65
2022/12/30 12:09:59;;;;;;;26.42;4.25;;;;;;;9.36;90.09;100045.94;5110123;28;20016;-66
2022/12/30 12:12:33;;;;;;;31.83;4.38;;;;;;;9.33;90.16;100048.22;5109897;28;20379;-66
2022/12/30 12:15:22;;;;;;;25.80;3.50;;;;;;;9.27;89.89;100041.00;5102418;28;20032;-67
2022/12/30 12:17:56;;;;;;;27.90;4.78;;;;;;;9.25;90.72;100037.72;5092448;28;20447;-67
2022/12/30 12:20:34;;;;;;;29.50;4.13;;;;;;;9.20;91.27;100030.25;5107926;28;20085;-67
2022/12/30 12:23:11;;;;;;;29.38;4.50;;;;;;;9.26;90.62;100034.81;5115441;28;20038;-66
2022/12/30 12:25:43;;;;;;;32.08;4.10;;;;;;;9.20;90.32;100019.53;5103708;28;20389;-66
2022/12/30 12:28:11;;;;;;;26.67;5.30;;;;;;;9.01;90.85;100001.63;5109102;28;20058;-68
2022/12/30 12:31:03;;;;;;;24.38;4.00;;;;;;;9.19;91.10;100020.56;5110176;28;20023;-67
2022/12/30 12:33:54;;;;;;;27.60;4.15;;;;;;;9.22;90.93;100012.09;5084309;28;20085;-68
2022/12/30 12:36:38;;;;;;;27.63;3.83;;;;;;;9.09;91.32;100010.25;5104874;28;20044;-66
2022/12/30 12:39:11;;;;;;;26.15;3.67;;;;;;;9.13;91.12;99997.25;5115737;28;20035;-66
2022/12/30 12:41:41;;;;;;;35.90;4.28;;;;;;;9.20;90.88;99992.69;5102693;28;20038;-67